Metar z połowy godziny Komunikat METAR ze strony awiacja.imgw.pl Metar G30 EPKS METAR EPKS 191000Z VRB01KT 3000 BR OVC005 13/12 Q1024 RMK 125 097 8/8=